sensor_id;sensor_type;location;lat;lon;timestamp;P1;durP1;ratioP1;P2;durP2;ratioP2
60730;SDS011;46580;52.114;11.674;2023-03-01T00:01:12;12.47;;;6.33;;
60730;SDS011;46580;52.114;11.674;2023-03-01T00:03:39;9.90;;;6.07;;
60730;SDS011;46580;52.114;11.674;2023-03-01T00:06:05;10.50;;;6.40;;
60730;SDS011;46580;52.114;11.674;2023-03-01T00:08:31;12.70;;;5.73;;
60730;SDS011;46580;52.114;11.674;2023-03-01T00:11:14;8.67;;;5.93;;
60730;SDS011;46580;52.114;11.674;2023-03-01T00:13:42;10.17;;;5.43;;
60730;SDS011;46580;52.114;11.674;2023-03-01T00:16:28;10.10;;;6.20;;
60730;SDS011;46580;52.114;11.674;2023-03-01T00:18:57;10.70;;;5.87;;
60730;SDS011;46580;52.114;11.674;2023-03-01T00:21:23;9.73;;;5.77;;
60730;SDS011;46580;52.114;11.674;2023-03-01T00:23:49;9.67;;;5.83;;
60730;SDS011;46580;52.114;11.674;2023-03-01T00:26:15;8.90;;;5.40;;
60730;SDS011;46580;52.114;11.674;2023-03-01T00:28:42;10.27;;;6.60;;
60730;SDS011;46580;52.114;11.674;2023-03-01T00:31:13;8.57;;;5.37;;
60730;SDS011;46580;52.114;11.674;2023-03-01T00:33:41;10.57;;;5.43;;
60730;SDS011;46580;52.114;11.674;2023-03-01T00:36:08;9.57;;;5.30;;
60730;SDS011;46580;52.114;11.674;2023-03-01T00:38:35;10.07;;;5.40;;
60730;SDS011;46580;52.114;11.674;2023-03-01T00:41:02;10.37;;;5.63;;
60730;SDS011;46580;52.114;11.674;2023-03-01T00:43:29;9.63;;;5.47;;
60730;SDS011;46580;52.114;11.674;2023-03-01T00:45:55;10.10;;;5.27;;
60730;SDS011;46580;52.114;11.674;2023-03-01T00:48:25;11.20;;;6.13;;
60730;SDS011;46580;52.114;11.674;2023-03-01T00:50:50;11.43;;;6.33;;
60730;SDS011;46580;52.114;11.674;2023-03-01T00:53:17;8.53;;;4.93;;
60730;SDS011;46580;52.114;11.674;2023-03-01T00:55:43;11.73;;;5.90;;
60730;SDS011;46580;52.114;11.674;2023-03-01T00:58:09;7.40;;;5.10;;
60730;SDS011;46580;52.114;11.674;2023-03-01T01:00:35;10.43;;;5.90;;
60730;SDS011;46580;52.114;11.674;2023-03-01T01:03:01;11.67;;;5.80;;
60730;SDS011;46580;52.114;11.674;2023-03-01T01:05:27;14.60;;;6.67;;
60730;SDS011;46580;52.114;11.674;2023-03-01T01:07:53;15.23;;;6.70;;
60730;SDS011;46580;52.114;11.674;2023-03-01T01:10:19;12.50;;;5.93;;
60730;SDS011;46580;52.114;11.674;2023-03-01T01:12:45;10.27;;;5.75;;
60730;SDS011;46580;52.114;11.674;2023-03-01T01:15:11;7.90;;;5.17;;
60730;SDS011;46580;52.114;11.674;2023-03-01T01:17:39;11.57;;;5.50;;
60730;SDS011;46580;52.114;11.674;2023-03-01T01:20:04;8.40;;;5.30;;
60730;SDS011;46580;52.114;11.674;2023-03-01T01:22:32;7.53;;;5.70;;
60730;SDS011;46580;52.114;11.674;2023-03-01T01:24:57;9.87;;;5.10;;
60730;SDS011;46580;52.114;11.674;2023-03-01T01:27:23;10.07;;;5.23;;
60730;SDS011;46580;52.114;11.674;2023-03-01T01:29:49;8.37;;;5.43;;
60730;SDS011;46580;52.114;11.674;2023-03-01T01:32:17;11.23;;;5.47;;
60730;SDS011;46580;52.114;11.674;2023-03-01T01:34:43;8.70;;;5.40;;
60730;SDS011;46580;52.114;11.674;2023-03-01T01:37:09;8.07;;;5.70;;
60730;SDS011;46580;52.114;11.674;2023-03-01T01:39:35;8.27;;;4.93;;
60730;SDS011;46580;52.114;11.674;2023-03-01T01:42:01;9.63;;;5.20;;
60730;SDS011;46580;52.114;11.674;2023-03-01T01:44:29;9.20;;;5.67;;
60730;SDS011;46580;52.114;11.674;2023-03-01T01:47:13;7.97;;;5.20;;
60730;SDS011;46580;52.114;11.674;2023-03-01T01:49:44;10.73;;;5.80;;
60730;SDS011;46580;52.114;11.674;2023-03-01T01:54:55;9.93;;;5.53;;
60730;SDS011;46580;52.114;11.674;2023-03-01T01:57:43;10.83;;;5.60;;
60730;SDS011;46580;52.114;11.674;2023-03-01T02:00:12;10.20;;;5.90;;
60730;SDS011;46580;52.114;11.674;2023-03-01T02:02:40;12.67;;;5.60;;
60730;SDS011;46580;52.114;11.674;2023-03-01T02:05:09;11.98;;;5.13;;
60730;SDS011;46580;52.114;11.674;2023-03-01T02:07:39;8.23;;;5.10;;
60730;SDS011;46580;52.114;11.674;2023-03-01T02:10:06;10.83;;;6.00;;
60730;SDS011;46580;52.114;11.674;2023-03-01T02:12:32;13.27;;;5.67;;
60730;SDS011;46580;52.114;11.674;2023-03-01T02:14:58;9.75;;;5.97;;
60730;SDS011;46580;52.114;11.674;2023-03-01T02:17:24;12.70;;;6.07;;
60730;SDS011;46580;52.114;11.674;2023-03-01T02:22:37;16.03;;;5.97;;
60730;SDS011;46580;52.114;11.674;2023-03-01T02:30:37;9.93;;;5.97;;
60730;SDS011;46580;52.114;11.674;2023-03-01T02:33:24;11.50;;;5.10;;
60730;SDS011;46580;52.114;11.674;2023-03-01T02:35:51;8.90;;;5.43;;
60730;SDS011;46580;52.114;11.674;2023-03-01T02:38:19;8.82;;;4.93;;
60730;SDS011;46580;52.114;11.674;2023-03-01T02:40:47;10.50;;;5.45;;
60730;SDS011;46580;52.114;11.674;2023-03-01T02:43:14;10.73;;;5.50;;
60730;SDS011;46580;52.114;11.674;2023-03-01T02:45:50;7.95;;;5.03;;
60730;SDS011;46580;52.114;11.674;2023-03-01T02:48:17;8.25;;;4.63;;
60730;SDS011;46580;52.114;11.674;2023-03-01T02:53:28;8.98;;;5.72;;
60730;SDS011;46580;52.114;11.674;2023-03-01T02:56:03;7.93;;;4.57;;
60730;SDS011;46580;52.114;11.674;2023-03-01T02:58:29;9.93;;;5.33;;
60730;SDS011;46580;52.114;11.674;2023-03-01T03:00:55;11.03;;;5.60;;
60730;SDS011;46580;52.114;11.674;2023-03-01T03:03:21;7.67;;;4.63;;
60730;SDS011;46580;52.114;11.674;2023-03-01T03:05:48;9.30;;;5.40;;
60730;SDS011;46580;52.114;11.674;2023-03-01T03:08:14;13.23;;;5.33;;
60730;SDS011;46580;52.114;11.674;2023-03-01T03:10:41;12.23;;;6.07;;
60730;SDS011;46580;52.114;11.674;2023-03-01T03:13:12;10.25;;;5.75;;
60730;SDS011;46580;52.114;11.674;2023-03-01T03:15:41;8.95;;;5.10;;
60730;SDS011;46580;52.114;11.674;2023-03-01T03:18:09;9.18;;;5.30;;
60730;SDS011;46580;52.114;11.674;2023-03-01T03:20:37;8.55;;;4.75;;
60730;SDS011;46580;52.114;11.674;2023-03-01T03:23:05;8.33;;;4.57;;
60730;SDS011;46580;52.114;11.674;2023-03-01T03:25:31;8.70;;;5.60;;
60730;SDS011;46580;52.114;11.674;2023-03-01T03:27:56;9.50;;;4.80;;
60730;SDS011;46580;52.114;11.674;2023-03-01T03:30:25;9.88;;;5.20;;
60730;SDS011;46580;52.114;11.674;2023-03-01T03:32:52;10.47;;;4.83;;
60730;SDS011;46580;52.114;11.674;2023-03-01T03:35:22;11.23;;;5.23;;
60730;SDS011;46580;52.114;11.674;2023-03-01T03:37:51;9.55;;;4.78;;
60730;SDS011;46580;52.114;11.674;2023-03-01T03:40:27;8.20;;;4.53;;
60730;SDS011;46580;52.114;11.674;2023-03-01T03:43:02;8.75;;;5.03;;
60730;SDS011;46580;52.114;11.674;2023-03-01T03:45:33;8.25;;;4.80;;
60730;SDS011;46580;52.114;11.674;2023-03-01T03:48:00;9.55;;;5.35;;
60730;SDS011;46580;52.114;11.674;2023-03-01T03:50:26;10.48;;;4.50;;
60730;SDS011;46580;52.114;11.674;2023-03-01T03:52:52;13.97;;;5.00;;
60730;SDS011;46580;52.114;11.674;2023-03-01T03:55:17;8.13;;;4.53;;
60730;SDS011;46580;52.114;11.674;2023-03-01T03:57:44;7.40;;;4.82;;
60730;SDS011;46580;52.114;11.674;2023-03-01T04:00:16;7.80;;;5.07;;
60730;SDS011;46580;52.114;11.674;2023-03-01T04:02:44;11.27;;;4.97;;
60730;SDS011;46580;52.114;11.674;2023-03-01T04:05:11;6.63;;;4.70;;
60730;SDS011;46580;52.114;11.674;2023-03-01T04:07:39;6.80;;;4.28;;
60730;SDS011;46580;52.114;11.674;2023-03-01T04:10:06;7.68;;;5.25;;
60730;SDS011;46580;52.114;11.674;2023-03-01T04:12:35;9.95;;;5.25;;
60730;SDS011;46580;52.114;11.674;2023-03-01T04:15:02;7.50;;;4.68;;
60730;SDS011;46580;52.114;11.674;2023-03-01T04:17:38;9.32;;;5.22;;
60730;SDS011;46580;52.114;11.674;2023-03-01T04:20:04;9.88;;;5.03;;
60730;SDS011;46580;52.114;11.674;2023-03-01T04:22:30;11.20;;;5.28;;
60730;SDS011;46580;52.114;11.674;2023-03-01T04:24:57;8.27;;;5.28;;
60730;SDS011;46580;52.114;11.674;2023-03-01T04:27:26;9.18;;;5.50;;
60730;SDS011;46580;52.114;11.674;2023-03-01T04:29:53;11.80;;;5.88;;
60730;SDS011;46580;52.114;11.674;2023-03-01T04:32:19;10.20;;;5.47;;
60730;SDS011;46580;52.114;11.674;2023-03-01T04:34:45;10.07;;;5.10;;
60730;SDS011;46580;52.114;11.674;2023-03-01T04:37:11;7.25;;;4.82;;
60730;SDS011;46580;52.114;11.674;2023-03-01T04:39:37;8.27;;;5.60;;
60730;SDS011;46580;52.114;11.674;2023-03-01T04:42:10;9.07;;;5.30;;
60730;SDS011;46580;52.114;11.674;2023-03-01T04:44:39;9.98;;;5.10;;
60730;SDS011;46580;52.114;11.674;2023-03-01T04:47:05;6.35;;;4.60;;
60730;SDS011;46580;52.114;11.674;2023-03-01T04:49:31;10.93;;;4.90;;
60730;SDS011;46580;52.114;11.674;2023-03-01T04:51:57;8.60;;;4.97;;
60730;SDS011;46580;52.114;11.674;2023-03-01T04:54:27;8.43;;;4.45;;
60730;SDS011;46580;52.114;11.674;2023-03-01T04:56:53;8.55;;;4.93;;
60730;SDS011;46580;52.114;11.674;2023-03-01T04:59:19;13.43;;;5.33;;
60730;SDS011;46580;52.114;11.674;2023-03-01T05:01:47;9.57;;;4.55;;
60730;SDS011;46580;52.114;11.674;2023-03-01T05:04:13;7.63;;;4.60;;
60730;SDS011;46580;52.114;11.674;2023-03-01T05:06:39;12.37;;;5.00;;
60730;SDS011;46580;52.114;11.674;2023-03-01T05:09:05;9.68;;;4.93;;
60730;SDS011;46580;52.114;11.674;2023-03-01T05:11:32;8.43;;;5.43;;
60730;SDS011;46580;52.114;11.674;2023-03-01T05:14:01;13.48;;;5.18;;
60730;SDS011;46580;52.114;11.674;2023-03-01T05:16:27;7.43;;;4.38;;
60730;SDS011;46580;52.114;11.674;2023-03-01T05:18:55;8.55;;;4.72;;
60730;SDS011;46580;52.114;11.674;2023-03-01T05:21:21;9.07;;;5.05;;
60730;SDS011;46580;52.114;11.674;2023-03-01T05:23:47;8.77;;;4.43;;
60730;SDS011;46580;52.114;11.674;2023-03-01T05:26:13;7.93;;;4.90;;
60730;SDS011;46580;52.114;11.674;2023-03-01T05:28:40;8.52;;;5.22;;
60730;SDS011;46580;52.114;11.674;2023-03-01T05:31:06;6.82;;;4.05;;
60730;SDS011;46580;52.114;11.674;2023-03-01T05:33:37;7.95;;;4.20;;
60730;SDS011;46580;52.114;11.674;2023-03-01T05:36:06;8.27;;;4.20;;
60730;SDS011;46580;52.114;11.674;2023-03-01T05:38:33;8.23;;;4.70;;
60730;SDS011;46580;52.114;11.674;2023-03-01T05:41:00;11.00;;;5.18;;
60730;SDS011;46580;52.114;11.674;2023-03-01T05:43:25;9.23;;;5.37;;
60730;SDS011;46580;52.114;11.674;2023-03-01T05:45:51;6.80;;;4.77;;
60730;SDS011;46580;52.114;11.674;2023-03-01T05:48:16;8.17;;;4.80;;
60730;SDS011;46580;52.114;11.674;2023-03-01T05:50:44;8.10;;;4.20;;
60730;SDS011;46580;52.114;11.674;2023-03-01T05:53:13;7.53;;;4.50;;
60730;SDS011;46580;52.114;11.674;2023-03-01T05:55:40;10.60;;;4.97;;
60730;SDS011;46580;52.114;11.674;2023-03-01T05:58:09;7.25;;;4.78;;
60730;SDS011;46580;52.114;11.674;2023-03-01T06:00:37;9.95;;;4.60;;
60730;SDS011;46580;52.114;11.674;2023-03-01T06:03:03;7.63;;;4.40;;
60730;SDS011;46580;52.114;11.674;2023-03-01T06:05:29;12.50;;;5.10;;
60730;SDS011;46580;52.114;11.674;2023-03-01T06:07:58;9.68;;;4.32;;
60730;SDS011;46580;52.114;11.674;2023-03-01T06:10:26;11.57;;;4.25;;
60730;SDS011;46580;52.114;11.674;2023-03-01T06:12:53;11.90;;;5.13;;
60730;SDS011;46580;52.114;11.674;2023-03-01T06:15:19;11.70;;;4.65;;
60730;SDS011;46580;52.114;11.674;2023-03-01T06:17:45;8.82;;;5.00;;
60730;SDS011;46580;52.114;11.674;2023-03-01T06:20:13;8.13;;;4.63;;
60730;SDS011;46580;52.114;11.674;2023-03-01T06:22:43;8.68;;;4.57;;
60730;SDS011;46580;52.114;11.674;2023-03-01T06:25:09;9.30;;;5.15;;
60730;SDS011;46580;52.114;11.674;2023-03-01T06:27:37;8.52;;;4.85;;
60730;SDS011;46580;52.114;11.674;2023-03-01T06:30:04;10.55;;;5.03;;
60730;SDS011;46580;52.114;11.674;2023-03-01T06:32:29;12.50;;;5.18;;
60730;SDS011;46580;52.114;11.674;2023-03-01T06:34:56;12.73;;;5.13;;
60730;SDS011;46580;52.114;11.674;2023-03-01T06:37:23;9.10;;;4.70;;
60730;SDS011;46580;52.114;11.674;2023-03-01T06:39:48;7.43;;;4.17;;
60730;SDS011;46580;52.114;11.674;2023-03-01T06:42:16;11.35;;;4.80;;
60730;SDS011;46580;52.114;11.674;2023-03-01T06:44:41;12.97;;;4.53;;
60730;SDS011;46580;52.114;11.674;2023-03-01T06:47:09;10.50;;;4.60;;
60730;SDS011;46580;52.114;11.674;2023-03-01T06:49:35;8.18;;;4.60;;
60730;SDS011;46580;52.114;11.674;2023-03-01T06:52:01;5.57;;;4.10;;
60730;SDS011;46580;52.114;11.674;2023-03-01T06:54:27;9.70;;;4.80;;
60730;SDS011;46580;52.114;11.674;2023-03-01T06:56:53;9.35;;;5.53;;
60730;SDS011;46580;52.114;11.674;2023-03-01T06:59:18;12.27;;;5.13;;
60730;SDS011;46580;52.114;11.674;2023-03-01T07:01:44;8.70;;;6.03;;
60730;SDS011;46580;52.114;11.674;2023-03-01T07:04:10;9.80;;;6.63;;
60730;SDS011;46580;52.114;11.674;2023-03-01T07:06:36;15.82;;;7.20;;
60730;SDS011;46580;52.114;11.674;2023-03-01T07:09:02;12.10;;;6.60;;
60730;SDS011;46580;52.114;11.674;2023-03-01T07:11:27;10.77;;;6.20;;
60730;SDS011;46580;52.114;11.674;2023-03-01T07:13:54;10.95;;;6.03;;
60730;SDS011;46580;52.114;11.674;2023-03-01T07:16:20;15.45;;;5.88;;
60730;SDS011;46580;52.114;11.674;2023-03-01T07:18:46;13.23;;;5.90;;
60730;SDS011;46580;52.114;11.674;2023-03-01T07:21:12;12.07;;;5.43;;
60730;SDS011;46580;52.114;11.674;2023-03-01T07:23:38;11.10;;;5.55;;
60730;SDS011;46580;52.114;11.674;2023-03-01T07:26:04;13.27;;;5.70;;
60730;SDS011;46580;52.114;11.674;2023-03-01T07:28:29;11.73;;;5.13;;
60730;SDS011;46580;52.114;11.674;2023-03-01T07:30:58;8.05;;;4.93;;
60730;SDS011;46580;52.114;11.674;2023-03-01T07:33:26;8.95;;;5.57;;
60730;SDS011;46580;52.114;11.674;2023-03-01T07:36:01;8.23;;;5.30;;
60730;SDS011;46580;52.114;11.674;2023-03-01T07:38:28;7.10;;;5.18;;
60730;SDS011;46580;52.114;11.674;2023-03-01T07:40:59;9.95;;;4.90;;
60730;SDS011;46580;52.114;11.674;2023-03-01T07:43:26;13.60;;;5.83;;
60730;SDS011;46580;52.114;11.674;2023-03-01T07:45:52;9.53;;;6.00;;
60730;SDS011;46580;52.114;11.674;2023-03-01T07:48:18;13.83;;;5.47;;
60730;SDS011;46580;52.114;11.674;2023-03-01T07:50:43;9.77;;;5.53;;
60730;SDS011;46580;52.114;11.674;2023-03-01T07:53:10;11.30;;;5.60;;
60730;SDS011;46580;52.114;11.674;2023-03-01T07:55:36;9.33;;;6.00;;
60730;SDS011;46580;52.114;11.674;2023-03-01T07:58:01;10.23;;;5.20;;
60730;SDS011;46580;52.114;11.674;2023-03-01T08:00:27;11.97;;;5.90;;
60730;SDS011;46580;52.114;11.674;2023-03-01T08:02:53;13.03;;;6.47;;
60730;SDS011;46580;52.114;11.674;2023-03-01T08:05:19;10.20;;;5.23;;
60730;SDS011;46580;52.114;11.674;2023-03-01T08:07:44;9.80;;;6.23;;
60730;SDS011;46580;52.114;11.674;2023-03-01T08:10:10;10.03;;;6.30;;
60730;SDS011;46580;52.114;11.674;2023-03-01T08:12:35;15.33;;;6.30;;
60730;SDS011;46580;52.114;11.674;2023-03-01T08:15:01;12.27;;;6.40;;
60730;SDS011;46580;52.114;11.674;2023-03-01T08:17:28;11.43;;;6.33;;
60730;SDS011;46580;52.114;11.674;2023-03-01T08:19:53;14.07;;;6.73;;
60730;SDS011;46580;52.114;11.674;2023-03-01T08:22:20;12.33;;;5.77;;
60730;SDS011;46580;52.114;11.674;2023-03-01T08:24:46;12.10;;;6.53;;
60730;SDS011;46580;52.114;11.674;2023-03-01T08:27:12;7.57;;;4.83;;
60730;SDS011;46580;52.114;11.674;2023-03-01T08:29:38;14.53;;;6.07;;
60730;SDS011;46580;52.114;11.674;2023-03-01T08:32:03;8.30;;;4.80;;
60730;SDS011;46580;52.114;11.674;2023-03-01T08:34:30;9.77;;;5.13;;
60730;SDS011;46580;52.114;11.674;2023-03-01T08:36:56;12.50;;;5.40;;
60730;SDS011;46580;52.114;11.674;2023-03-01T08:39:22;11.03;;;5.40;;
60730;SDS011;46580;52.114;11.674;2023-03-01T08:41:48;7.43;;;4.80;;
60730;SDS011;46580;52.114;11.674;2023-03-01T08:44:14;8.33;;;5.00;;
60730;SDS011;46580;52.114;11.674;2023-03-01T08:46:41;9.33;;;4.60;;
60730;SDS011;46580;52.114;11.674;2023-03-01T08:49:09;11.10;;;4.93;;
60730;SDS011;46580;52.114;11.674;2023-03-01T08:51:37;11.03;;;4.37;;
60730;SDS011;46580;52.114;11.674;2023-03-01T08:54:03;10.47;;;5.23;;
60730;SDS011;46580;52.114;11.674;2023-03-01T08:56:30;12.03;;;4.63;;
60730;SDS011;46580;52.114;11.674;2023-03-01T08:58:55;6.70;;;4.40;;
60730;SDS011;46580;52.114;11.674;2023-03-01T09:01:21;10.97;;;5.10;;
60730;SDS011;46580;52.114;11.674;2023-03-01T09:03:46;7.57;;;4.40;;
60730;SDS011;46580;52.114;11.674;2023-03-01T09:06:12;11.17;;;5.00;;
60730;SDS011;46580;52.114;11.674;2023-03-01T09:08:39;8.03;;;4.30;;
60730;SDS011;46580;52.114;11.674;2023-03-01T09:11:08;8.73;;;4.57;;
60730;SDS011;46580;52.114;11.674;2023-03-01T09:13:35;8.47;;;4.33;;
60730;SDS011;46580;52.114;11.674;2023-03-01T09:16:03;7.30;;;3.97;;
60730;SDS011;46580;52.114;11.674;2023-03-01T09:18:29;6.23;;;4.43;;
60730;SDS011;46580;52.114;11.674;2023-03-01T09:23:31;5.30;;;3.80;;
60730;SDS011;46580;52.114;11.674;2023-03-01T09:25:58;7.97;;;3.97;;
60730;SDS011;46580;52.114;11.674;2023-03-01T09:28:24;8.03;;;4.60;;
60730;SDS011;46580;52.114;11.674;2023-03-01T09:30:50;5.80;;;3.97;;
60730;SDS011;46580;52.114;11.674;2023-03-01T09:33:16;9.00;;;3.83;;
60730;SDS011;46580;52.114;11.674;2023-03-01T09:35:41;6.27;;;4.17;;
60730;SDS011;46580;52.114;11.674;2023-03-01T09:38:11;4.70;;;3.30;;
60730;SDS011;46580;52.114;11.674;2023-03-01T09:40:37;7.83;;;3.50;;
60730;SDS011;46580;52.114;11.674;2023-03-01T09:43:11;6.60;;;3.23;;
60730;SDS011;46580;52.114;11.674;2023-03-01T09:45:43;10.97;;;3.77;;
60730;SDS011;46580;52.114;11.674;2023-03-01T09:48:13;6.43;;;3.80;;
60730;SDS011;46580;52.114;11.674;2023-03-01T09:50:43;9.10;;;3.73;;
60730;SDS011;46580;52.114;11.674;2023-03-01T09:53:21;7.37;;;4.03;;
60730;SDS011;46580;52.114;11.674;2023-03-01T09:55:54;6.13;;;3.30;;
60730;SDS011;46580;52.114;11.674;2023-03-01T10:00:54;6.93;;;3.47;;
60730;SDS011;46580;52.114;11.674;2023-03-01T10:06:06;3.60;;;2.60;;
60730;SDS011;46580;52.114;11.674;2023-03-01T10:08:40;3.73;;;2.40;;
60730;SDS011;46580;52.114;11.674;2023-03-01T10:11:30;5.17;;;2.77;;
60730;SDS011;46580;52.114;11.674;2023-03-01T10:16:51;4.97;;;3.30;;
60730;SDS011;46580;52.114;11.674;2023-03-01T10:19:24;3.47;;;2.53;;
60730;SDS011;46580;52.114;11.674;2023-03-01T10:21:55;9.93;;;2.90;;
60730;SDS011;46580;52.114;11.674;2023-03-01T10:24:26;7.20;;;3.70;;
60730;SDS011;46580;52.114;11.674;2023-03-01T10:26:58;6.30;;;3.47;;
60730;SDS011;46580;52.114;11.674;2023-03-01T10:29:31;8.33;;;4.00;;
60730;SDS011;46580;52.114;11.674;2023-03-01T10:32:11;5.40;;;3.40;;
60730;SDS011;46580;52.114;11.674;2023-03-01T10:34:38;2.80;;;2.60;;
60730;SDS011;46580;52.114;11.674;2023-03-01T10:37:14;5.90;;;3.13;;
60730;SDS011;46580;52.114;11.674;2023-03-01T10:42:33;5.17;;;3.90;;
60730;SDS011;46580;52.114;11.674;2023-03-01T10:48:12;5.70;;;3.60;;
60730;SDS011;46580;52.114;11.674;2023-03-01T10:53:41;6.73;;;2.90;;
60730;SDS011;46580;52.114;11.674;2023-03-01T10:56:08;4.23;;;3.00;;
60730;SDS011;46580;52.114;11.674;2023-03-01T10:58:39;5.97;;;3.27;;
60730;SDS011;46580;52.114;11.674;2023-03-01T11:06:32;6.20;;;3.77;;
60730;SDS011;46580;52.114;11.674;2023-03-01T11:09:12;5.87;;;3.47;;
60730;SDS011;46580;52.114;11.674;2023-03-01T11:11:38;5.63;;;3.37;;
60730;SDS011;46580;52.114;11.674;2023-03-01T11:14:07;6.77;;;3.57;;
60730;SDS011;46580;52.114;11.674;2023-03-01T11:16:41;7.50;;;3.60;;
60730;SDS011;46580;52.114;11.674;2023-03-01T11:21:41;4.93;;;3.37;;
60730;SDS011;46580;52.114;11.674;2023-03-01T11:24:14;3.97;;;3.03;;
60730;SDS011;46580;52.114;11.674;2023-03-01T11:26:42;4.90;;;2.47;;
60730;SDS011;46580;52.114;11.674;2023-03-01T11:29:29;3.77;;;2.70;;
60730;SDS011;46580;52.114;11.674;2023-03-01T11:32:00;3.37;;;2.20;;
60730;SDS011;46580;52.114;11.674;2023-03-01T11:40:23;4.83;;;2.50;;
60730;SDS011;46580;52.114;11.674;2023-03-01T11:54:09;6.00;;;3.20;;
60730;SDS011;46580;52.114;11.674;2023-03-01T11:56:45;5.87;;;2.97;;
60730;SDS011;46580;52.114;11.674;2023-03-01T11:59:24;5.33;;;3.27;;
60730;SDS011;46580;52.114;11.674;2023-03-01T12:16:20;5.83;;;3.20;;
60730;SDS011;46580;52.114;11.674;2023-03-01T12:19:07;4.90;;;2.70;;
60730;SDS011;46580;52.114;11.674;2023-03-01T12:21:51;5.47;;;3.23;;
60730;SDS011;46580;52.114;11.674;2023-03-01T12:24:29;6.90;;;3.30;;
60730;SDS011;46580;52.114;11.674;2023-03-01T12:30:00;3.37;;;2.67;;
60730;SDS011;46580;52.114;11.674;2023-03-01T12:35:34;4.90;;;2.87;;
60730;SDS011;46580;52.114;11.674;2023-03-01T12:50:03;4.70;;;2.90;;
60730;SDS011;46580;52.114;11.674;2023-03-01T12:52:51;4.37;;;2.87;;
60730;SDS011;46580;52.114;11.674;2023-03-01T12:55:24;8.03;;;2.97;;
60730;SDS011;46580;52.114;11.674;2023-03-01T12:58:09;4.37;;;2.93;;
60730;SDS011;46580;52.114;11.674;2023-03-01T13:06:48;5.33;;;3.03;;
60730;SDS011;46580;52.114;11.674;2023-03-01T13:11:57;5.37;;;2.80;;
60730;SDS011;46580;52.114;11.674;2023-03-01T13:16:50;5.63;;;2.20;;
60730;SDS011;46580;52.114;11.674;2023-03-01T13:21:46;4.20;;;2.50;;
60730;SDS011;46580;52.114;11.674;2023-03-01T13:29:44;2.97;;;2.10;;
60730;SDS011;46580;52.114;11.674;2023-03-01T13:34:50;5.07;;;2.40;;
60730;SDS011;46580;52.114;11.674;2023-03-01T13:37:27;2.70;;;2.00;;
60730;SDS011;46580;52.114;11.674;2023-03-01T13:39:56;3.33;;;1.80;;
60730;SDS011;46580;52.114;11.674;2023-03-01T13:42:38;3.00;;;1.93;;
60730;SDS011;46580;52.114;11.674;2023-03-01T13:45:14;3.37;;;1.60;;
60730;SDS011;46580;52.114;11.674;2023-03-01T13:47:40;5.10;;;2.37;;
60730;SDS011;46580;52.114;11.674;2023-03-01T13:50:15;4.17;;;2.10;;
60730;SDS011;46580;52.114;11.674;2023-03-01T13:52:45;4.27;;;1.90;;
60730;SDS011;46580;52.114;11.674;2023-03-01T13:55:23;4.13;;;2.00;;
60730;SDS011;46580;52.114;11.674;2023-03-01T13:58:00;4.27;;;2.13;;
60730;SDS011;46580;52.114;11.674;2023-03-01T14:00:30;2.37;;;2.03;;
60730;SDS011;46580;52.114;11.674;2023-03-01T14:03:12;3.17;;;2.10;;
60730;SDS011;46580;52.114;11.674;2023-03-01T14:05:38;2.90;;;2.00;;
60730;SDS011;46580;52.114;11.674;2023-03-01T14:08:17;2.57;;;1.87;;
60730;SDS011;46580;52.114;11.674;2023-03-01T14:10:49;3.40;;;2.30;;
60730;SDS011;46580;52.114;11.674;2023-03-01T14:15:55;4.57;;;2.37;;
60730;SDS011;46580;52.114;11.674;2023-03-01T14:18:36;6.30;;;2.57;;
60730;SDS011;46580;52.114;11.674;2023-03-01T14:21:13;3.77;;;2.13;;
60730;SDS011;46580;52.114;11.674;2023-03-01T14:23:39;3.60;;;2.63;;
60730;SDS011;46580;52.114;11.674;2023-03-01T14:26:07;3.87;;;1.87;;
60730;SDS011;46580;52.114;11.674;2023-03-01T14:28:33;3.97;;;2.60;;
60730;SDS011;46580;52.114;11.674;2023-03-01T14:31:05;3.30;;;2.17;;
60730;SDS011;46580;52.114;11.674;2023-03-01T14:34:04;3.50;;;2.47;;
60730;SDS011;46580;52.114;11.674;2023-03-01T14:36:31;5.07;;;3.00;;
60730;SDS011;46580;52.114;11.674;2023-03-01T14:38:58;7.73;;;2.70;;
60730;SDS011;46580;52.114;11.674;2023-03-01T14:41:30;3.47;;;2.40;;
60730;SDS011;46580;52.114;11.674;2023-03-01T14:43:59;4.83;;;2.73;;
60730;SDS011;46580;52.114;11.674;2023-03-01T14:46:34;3.27;;;2.30;;
60730;SDS011;46580;52.114;11.674;2023-03-01T14:49:03;4.83;;;2.70;;
60730;SDS011;46580;52.114;11.674;2023-03-01T14:51:38;4.70;;;2.80;;
60730;SDS011;46580;52.114;11.674;2023-03-01T14:54:19;4.43;;;2.43;;
60730;SDS011;46580;52.114;11.674;2023-03-01T14:56:50;3.50;;;2.17;;
60730;SDS011;46580;52.114;11.674;2023-03-01T14:59:16;3.13;;;2.40;;
60730;SDS011;46580;52.114;11.674;2023-03-01T15:01:46;3.57;;;2.00;;
60730;SDS011;46580;52.114;11.674;2023-03-01T15:04:12;4.27;;;2.37;;
60730;SDS011;46580;52.114;11.674;2023-03-01T15:06:38;7.87;;;2.17;;
60730;SDS011;46580;52.114;11.674;2023-03-01T15:09:06;4.27;;;2.40;;
60730;SDS011;46580;52.114;11.674;2023-03-01T15:11:38;2.60;;;1.70;;
60730;SDS011;46580;52.114;11.674;2023-03-01T15:14:27;3.73;;;2.07;;
60730;SDS011;46580;52.114;11.674;2023-03-01T15:16:54;3.37;;;1.97;;
60730;SDS011;46580;52.114;11.674;2023-03-01T15:19:20;3.43;;;1.87;;
60730;SDS011;46580;52.114;11.674;2023-03-01T15:21:54;2.57;;;1.70;;
60730;SDS011;46580;52.114;11.674;2023-03-01T15:24:22;3.10;;;1.93;;
60730;SDS011;46580;52.114;11.674;2023-03-01T15:26:57;3.47;;;2.03;;
60730;SDS011;46580;52.114;11.674;2023-03-01T15:29:32;5.43;;;2.17;;
60730;SDS011;46580;52.114;11.674;2023-03-01T15:34:34;3.80;;;2.30;;
60730;SDS011;46580;52.114;11.674;2023-03-01T15:37:04;2.53;;;1.47;;
60730;SDS011;46580;52.114;11.674;2023-03-01T15:39:37;2.43;;;1.63;;
60730;SDS011;46580;52.114;11.674;2023-03-01T15:44:39;3.33;;;1.97;;
60730;SDS011;46580;52.114;11.674;2023-03-01T15:47:29;2.97;;;1.60;;
60730;SDS011;46580;52.114;11.674;2023-03-01T15:49:55;3.37;;;1.70;;
60730;SDS011;46580;52.114;11.674;2023-03-01T15:52:25;4.17;;;1.77;;
60730;SDS011;46580;52.114;11.674;2023-03-01T15:54:57;4.00;;;1.53;;
60730;SDS011;46580;52.114;11.674;2023-03-01T15:57:26;3.93;;;1.40;;
60730;SDS011;46580;52.114;11.674;2023-03-01T15:59:52;1.50;;;1.00;;
60730;SDS011;46580;52.114;11.674;2023-03-01T16:02:17;3.00;;;1.40;;
60730;SDS011;46580;52.114;11.674;2023-03-01T16:04:46;2.70;;;2.00;;
60730;SDS011;46580;52.114;11.674;2023-03-01T16:07:12;5.87;;;1.80;;
60730;SDS011;46580;52.114;11.674;2023-03-01T16:09:37;3.13;;;1.97;;
60730;SDS011;46580;52.114;11.674;2023-03-01T16:12:03;2.87;;;1.40;;
60730;SDS011;46580;52.114;11.674;2023-03-01T16:14:28;2.83;;;1.50;;
60730;SDS011;46580;52.114;11.674;2023-03-01T16:16:54;3.10;;;1.53;;
60730;SDS011;46580;52.114;11.674;2023-03-01T16:19:19;2.37;;;1.50;;
60730;SDS011;46580;52.114;11.674;2023-03-01T16:21:45;2.53;;;1.70;;
60730;SDS011;46580;52.114;11.674;2023-03-01T16:24:12;3.50;;;1.60;;
60730;SDS011;46580;52.114;11.674;2023-03-01T16:26:38;3.60;;;2.07;;
60730;SDS011;46580;52.114;11.674;2023-03-01T16:29:03;6.13;;;1.97;;
60730;SDS011;46580;52.114;11.674;2023-03-01T16:31:28;3.47;;;1.70;;
60730;SDS011;46580;52.114;11.674;2023-03-01T16:33:54;3.83;;;1.97;;
60730;SDS011;46580;52.114;11.674;2023-03-01T16:36:21;3.27;;;2.40;;
60730;SDS011;46580;52.114;11.674;2023-03-01T16:38:49;2.43;;;1.90;;
60730;SDS011;46580;52.114;11.674;2023-03-01T16:41:16;2.30;;;1.70;;